Accueil
METAR-TAF:

METAR-TAF

Aéroports :

Aéroport civil d'Amman

Amman, Jordanie

latitude: 31-59N, longitude: 035-59E, altitude: 767 m

Observation

Le bulletin a été fait il y a 17 minutes, à 11:00 UTC
Vent 12 kt de ouest/sud-ouest
Température 29°C
Humidité 25%
Pression 1010 hPa
Visibilité: 5000 m
brume sèche

METAR: OJAM 201100Z 25012KT 5000 HZ NSC 29/07 Q1010 NOSIG

Heure: 14:17 (11:17 UTC)

Prévision

Le bulletin a été fait il y a 6 heures et 27 minutes, à 04:50 UTC
Prévision valable du 20 à 06 UTC au 21 à 12 UTC
Vent 8 kt de ouest
Visibilité: 5000 m
Quelques nuages à une hauteur de 3500 ft
brume sèche

TAF: OJAM 200450Z 2006/2112 28008KT 5000 HZ FEW035

Observations et prévisions météorologiques de plus de 4000 aéroports (messages METAR et TAF).

Les stations disponibles sont représentées par des disques jaunes et rouges sur la carte.

Passer la souris dessus pour voir le nom de la station.

Cliquer dessus pour voir les observations et prévisions météorologiques.

Pour changer de carte: cliquez sur les boutons verts avec une croix noire pour zoomer, sur le bouton vert avec un tiret pour effectuer un zoom arrière, ou sur les flèches vertes pour les cartes adjacentes.


METAR-TAF: